createdAt,value
2023-04-17T00:00:25.446Z,21.35
2023-04-17T00:05:25.710Z,21.21
2023-04-17T00:10:24.872Z,21.04
2023-04-17T00:15:23.980Z,20.91
2023-04-17T00:20:22.133Z,20.85
2023-04-17T00:25:23.403Z,20.59
2023-04-17T00:30:20.515Z,20.62
2023-04-17T00:35:20.079Z,20.59
2023-04-17T00:40:19.027Z,20.31
2023-04-17T00:45:18.176Z,20.05
2023-04-17T00:50:19.335Z,19.88
2023-04-17T00:55:17.676Z,19.73
2023-04-17T01:00:16.785Z,19.51
2023-04-17T01:05:15.144Z,19.44
2023-04-17T01:10:14.286Z,19.50
2023-04-17T01:15:13.615Z,19.58
2023-04-17T01:20:13.815Z,19.32
2023-04-17T01:25:12.947Z,19.18
2023-04-17T01:30:11.096Z,19.16
2023-04-17T01:35:10.296Z,19.04
2023-04-17T01:40:09.456Z,18.88
2023-04-17T01:45:08.646Z,18.90
2023-04-17T01:50:07.760Z,18.55
2023-04-17T01:55:07.136Z,18.62
2023-04-17T02:00:07.307Z,18.52
2023-04-17T02:05:06.641Z,18.30
2023-04-17T02:10:04.835Z,18.25
2023-04-17T02:15:04.021Z,18.36
2023-04-17T02:20:03.216Z,18.50
2023-04-17T02:25:02.204Z,18.51
2023-04-17T02:30:01.384Z,18.50
2023-04-17T02:35:01.577Z,18.30
2023-04-17T02:39:59.753Z,18.27
2023-04-17T02:44:58.903Z,18.20
2023-04-17T02:49:58.085Z,18.07
2023-04-17T02:54:57.251Z,18.11
2023-04-17T02:59:56.397Z,18.20
2023-04-17T03:04:55.578Z,18.11
2023-04-17T03:09:55.758Z,18.00
2023-04-17T03:14:53.914Z,18.20
2023-04-17T03:19:55.033Z,18.07
2023-04-17T03:24:52.403Z,17.97
2023-04-17T03:29:51.550Z,17.93
2023-04-17T03:34:49.700Z,17.79
2023-04-17T03:39:48.830Z,17.89
2023-04-17T03:44:49.189Z,17.49
2023-04-17T03:49:49.348Z,17.66
2023-04-17T03:54:47.488Z,17.43
2023-04-17T03:59:46.669Z,17.51
2023-04-17T04:04:48.117Z,17.59
2023-04-17T04:09:46.044Z,17.68
2023-04-17T04:14:46.216Z,17.26
2023-04-17T04:19:43.357Z,17.23
2023-04-17T04:24:43.493Z,17.40
2023-04-17T04:29:41.707Z,17.30
2023-04-17T04:34:40.892Z,17.28
2023-04-17T04:39:41.071Z,17.37
2023-04-17T04:44:39.240Z,17.21
2023-04-17T04:49:39.414Z,17.01
2023-04-17T04:54:38.552Z,16.94
2023-04-17T04:59:37.979Z,16.94
2023-04-17T05:04:37.183Z,17.18
2023-04-17T05:09:36.310Z,17.22
2023-04-17T05:14:35.590Z,17.34
2023-04-17T05:19:33.869Z,17.25
2023-04-17T05:24:33.162Z,17.25
2023-04-17T05:29:33.468Z,17.22
2023-04-17T05:34:32.766Z,17.15
2023-04-17T05:39:32.075Z,17.12
2023-04-17T05:44:30.349Z,17.14
2023-04-17T05:49:29.631Z,17.08
2023-04-17T05:54:28.925Z,17.12
2023-04-17T05:59:29.167Z,17.06
2023-04-17T06:04:27.542Z,17.00
2023-04-17T06:09:26.643Z,17.08
2023-04-17T06:14:26.906Z,16.93
2023-04-17T06:19:29.197Z,16.97
2023-04-17T06:24:25.497Z,16.88
2023-04-17T06:29:24.012Z,17.06
2023-04-17T06:34:25.111Z,17.25
2023-04-17T06:39:22.387Z,17.26
2023-04-17T06:44:24.678Z,17.25
2023-04-17T06:49:21.941Z,17.34
2023-04-17T06:54:21.228Z,17.38
2023-04-17T06:59:19.557Z,17.26
2023-04-17T07:04:18.930Z,17.12
2023-04-17T07:09:17.085Z,17.56
2023-04-17T07:14:17.340Z,17.96
2023-04-17T07:19:16.595Z,18.12
2023-04-17T07:24:14.939Z,18.26
2023-04-17T07:29:14.359Z,18.35
2023-04-17T07:34:14.166Z,18.44
2023-04-17T07:39:12.533Z,18.48
2023-04-17T07:44:12.815Z,18.57
2023-04-17T07:49:12.488Z,18.65
2023-04-17T07:54:11.080Z,18.70
2023-04-17T07:59:10.504Z,18.75
2023-04-17T08:04:08.716Z,18.81
2023-04-17T08:09:08.933Z,18.85
2023-04-17T08:14:08.033Z,18.90
2023-04-17T08:19:07.357Z,18.94
2023-04-17T08:24:06.730Z,18.99
2023-04-17T08:29:05.845Z,19.07
2023-04-17T08:34:13.803Z,19.13
2023-04-17T08:39:04.572Z,19.18
2023-04-17T08:44:04.768Z,19.21
2023-04-17T08:49:01.779Z,19.23
2023-04-17T08:54:02.115Z,19.26
2023-04-17T08:59:01.409Z,19.26
2023-04-17T09:04:00.637Z,19.26
2023-04-17T09:08:59.656Z,19.32
2023-04-17T09:13:58.853Z,19.37
2023-04-17T09:18:58.108Z,19.39
2023-04-17T09:23:57.385Z,19.41
2023-04-17T09:28:56.635Z,19.43
2023-04-17T09:33:54.814Z,19.47
2023-04-17T09:38:55.116Z,19.51
2023-04-17T09:43:54.210Z,19.54
2023-04-17T09:48:53.510Z,19.55
2023-04-17T09:53:52.909Z,19.56
2023-04-17T09:58:52.104Z,19.58
2023-04-17T10:03:51.554Z,19.61
2023-04-17T10:08:50.430Z,19.63
2023-04-17T10:13:49.530Z,19.66
2023-04-17T10:18:48.888Z,19.65
2023-04-17T10:23:47.959Z,19.66
2023-04-17T10:28:47.421Z,19.69
2023-04-17T10:33:46.535Z,19.71
2023-04-17T10:38:45.942Z,19.73
2023-04-17T10:43:45.135Z,19.73
2023-04-17T10:48:43.412Z,19.73
2023-04-17T10:53:43.567Z,19.76
2023-04-17T10:58:42.780Z,19.78
2023-04-17T11:03:41.961Z,19.78
2023-04-17T11:08:41.074Z,19.80
2023-04-17T11:13:40.176Z,19.81
2023-04-17T11:18:41.476Z,19.84
2023-04-17T11:23:38.770Z,19.86
2023-04-17T11:28:37.994Z,19.86
2023-04-17T11:33:37.279Z,19.87
2023-04-17T11:38:38.558Z,19.88
2023-04-17T11:43:34.757Z,19.91
2023-04-17T11:48:34.907Z,19.92
2023-04-17T11:53:33.369Z,19.94
2023-04-17T11:58:33.552Z,19.96
2023-04-17T12:03:32.939Z,19.95
2023-04-17T12:08:32.016Z,19.98
2023-04-17T12:13:30.193Z,19.99
2023-04-17T12:18:30.364Z,19.98
2023-04-17T12:23:28.505Z,20.02
2023-04-17T12:28:28.659Z,20.02
2023-04-17T12:33:27.979Z,20.03
2023-04-17T12:38:27.202Z,20.03
2023-04-17T12:43:26.360Z,20.05
2023-04-17T12:48:24.515Z,20.05
2023-04-17T12:53:24.743Z,20.06
2023-04-17T12:58:23.923Z,20.08
2023-04-17T13:03:22.331Z,20.10
2023-04-17T13:08:24.322Z,20.10
2023-04-17T13:13:20.723Z,20.10
2023-04-17T13:18:20.881Z,20.10
2023-04-17T13:23:19.038Z,20.10
2023-04-17T13:28:20.168Z,20.08
2023-04-17T13:33:18.494Z,20.13
2023-04-17T13:38:17.725Z,20.13
2023-04-17T13:43:16.940Z,20.13
2023-04-17T13:48:16.135Z,20.14
2023-04-17T13:53:15.262Z,20.16
2023-04-17T13:58:14.487Z,20.14
2023-04-17T14:03:16.828Z,20.16
2023-04-17T14:08:12.803Z,20.17
2023-04-17T14:13:12.058Z,20.17
2023-04-17T14:18:11.282Z,20.17
2023-04-17T14:23:10.519Z,20.20
2023-04-17T14:28:09.697Z,20.18
2023-04-17T14:33:08.887Z,20.18
2023-04-17T14:38:08.088Z,20.20
2023-04-17T14:43:07.255Z,20.20
2023-04-17T14:48:06.532Z,20.21
2023-04-17T14:53:05.800Z,20.21
2023-04-17T14:58:04.990Z,20.21
2023-04-17T15:03:06.225Z,20.23
2023-04-17T15:08:03.342Z,20.23
2023-04-17T15:13:02.511Z,20.23
2023-04-17T15:18:01.676Z,20.23
2023-04-17T15:23:00.787Z,20.23
2023-04-17T15:27:59.936Z,20.24
2023-04-17T15:32:59.169Z,20.24
2023-04-17T15:37:58.321Z,20.24
2023-04-17T15:42:57.459Z,20.26
2023-04-17T15:47:56.629Z,20.26
2023-04-17T15:52:55.744Z,20.26
2023-04-17T15:57:54.204Z,20.26
2023-04-17T16:02:54.666Z,20.24
2023-04-17T16:07:52.750Z,20.28
2023-04-17T16:12:53.141Z,20.24
2023-04-17T16:17:52.255Z,20.24
2023-04-17T16:22:50.629Z,20.26
2023-04-17T16:27:50.900Z,20.26
2023-04-17T16:32:50.183Z,20.24
2023-04-17T16:37:48.310Z,20.24
2023-04-17T16:42:47.600Z,20.26
2023-04-17T16:47:48.125Z,20.26
2023-04-17T16:52:46.162Z,20.26
2023-04-17T16:57:45.604Z,20.29
2023-04-17T17:02:46.745Z,20.29
2023-04-17T17:07:45.696Z,20.29
2023-04-17T17:12:43.951Z,21.53
2023-04-17T17:17:43.294Z,21.47
2023-04-17T17:22:42.425Z,22.40
2023-04-17T17:27:41.982Z,23.48
2023-04-17T17:32:40.987Z,23.93
2023-04-17T17:37:40.238Z,24.83
2023-04-17T17:42:41.475Z,24.99
2023-04-17T17:47:39.832Z,25.83
2023-04-17T17:52:38.514Z,26.07
2023-04-17T17:57:48.804Z,25.91
2023-04-17T18:02:37.537Z,25.99
2023-04-17T18:07:36.675Z,26.33
2023-04-17T18:12:34.974Z,26.80
2023-04-17T18:17:35.175Z,27.25
2023-04-17T18:22:35.262Z,27.17
2023-04-17T18:27:32.609Z,26.94
2023-04-17T18:32:31.865Z,27.03
2023-04-17T18:37:31.109Z,27.31
2023-04-17T18:42:30.289Z,27.09
2023-04-17T18:47:29.495Z,26.85
2023-04-17T18:52:28.759Z,26.62
2023-04-17T18:57:28.975Z,26.63
2023-04-17T19:02:30.263Z,26.58
2023-04-17T19:07:27.298Z,26.84
2023-04-17T19:12:25.370Z,26.92
2023-04-17T19:17:24.036Z,27.82
2023-04-17T19:22:24.165Z,27.54
2023-04-17T19:27:24.116Z,27.69
2023-04-17T19:32:22.736Z,27.00
2023-04-17T19:37:21.535Z,27.02
2023-04-17T19:42:24.357Z,27.29
2023-04-17T19:47:20.450Z,27.32
2023-04-17T19:52:21.394Z,27.19
2023-04-17T19:57:19.912Z,26.91
2023-04-17T20:02:18.204Z,27.13
2023-04-17T20:07:19.368Z,27.29
2023-04-17T20:12:16.733Z,27.54
2023-04-17T20:17:16.038Z,27.25
2023-04-17T20:22:15.954Z,27.22
2023-04-17T20:27:15.355Z,27.28
2023-04-17T20:32:13.488Z,27.50
2023-04-17T20:37:18.250Z,27.66
2023-04-17T20:42:13.126Z,27.90
2023-04-17T20:47:11.397Z,28.04
2023-04-17T20:52:10.687Z,27.87
2023-04-17T20:57:09.913Z,27.85
2023-04-17T21:02:10.288Z,27.78
2023-04-17T21:07:08.356Z,27.97
2023-04-17T21:12:07.661Z,28.21
2023-04-17T21:17:07.911Z,28.37
2023-04-17T21:22:06.181Z,28.34
2023-04-17T21:27:05.449Z,28.41
2023-04-17T21:32:04.884Z,28.11
2023-04-17T21:37:04.034Z,28.02
2023-04-17T21:42:05.306Z,28.09
2023-04-17T21:47:02.563Z,28.17
2023-04-17T21:52:01.850Z,28.02
2023-04-17T21:57:01.107Z,27.74
2023-04-17T22:02:00.437Z,27.82
2023-04-17T22:07:01.705Z,28.07
2023-04-17T22:11:58.944Z,28.22
2023-04-17T22:16:59.394Z,28.15
2023-04-17T22:21:58.403Z,27.97
2023-04-17T22:26:56.694Z,27.96
2023-04-17T22:31:55.960Z,28.09
2023-04-17T22:36:55.225Z,27.99
2023-04-17T22:41:54.450Z,28.55
2023-04-17T22:46:53.716Z,28.59
2023-04-17T22:51:52.997Z,28.25
2023-04-17T22:56:52.282Z,28.07
2023-04-17T23:01:51.613Z,27.74
2023-04-17T23:06:50.873Z,27.47
2023-04-17T23:11:50.156Z,27.13
2023-04-17T23:16:50.747Z,26.87
2023-04-17T23:21:48.622Z,26.58
2023-04-17T23:26:49.917Z,26.32
2023-04-17T23:31:47.198Z,26.09
2023-04-17T23:36:46.456Z,25.94
2023-04-17T23:41:47.701Z,25.70
2023-04-17T23:46:46.022Z,25.43
2023-04-17T23:51:44.294Z,25.17
2023-04-17T23:56:44.584Z,24.81
